createdAt,value
2018-12-31T00:02:09.885Z,163.50
2018-12-31T00:04:41.258Z,163.25
2018-12-31T00:07:12.505Z,151.00
2018-12-31T00:09:44.692Z,169.75
2018-12-31T00:12:16.081Z,173.75
2018-12-31T00:14:47.478Z,178.00
2018-12-31T00:17:19.143Z,172.75
2018-12-31T00:19:50.846Z,164.25
2018-12-31T00:22:22.309Z,182.00
2018-12-31T00:24:53.509Z,171.50
2018-12-31T00:27:25.258Z,160.50
2018-12-31T00:29:56.628Z,175.00
2018-12-31T00:32:28.179Z,186.00
2018-12-31T00:34:59.477Z,180.75
2018-12-31T00:37:31.000Z,166.75
2018-12-31T00:40:03.156Z,170.50
2018-12-31T00:42:34.647Z,164.25
2018-12-31T00:45:06.696Z,172.25
2018-12-31T00:47:38.196Z,177.00
2018-12-31T00:50:09.445Z,176.00
2018-12-31T00:52:40.839Z,189.25
2018-12-31T00:55:12.290Z,169.25
2018-12-31T00:57:43.531Z,184.75
2018-12-31T01:00:14.781Z,177.75
2018-12-31T01:02:46.307Z,179.75
2018-12-31T01:05:17.475Z,175.50
2018-12-31T01:07:49.281Z,177.00
2018-12-31T01:10:21.499Z,181.50
2018-12-31T01:12:52.826Z,191.75
2018-12-31T01:15:24.360Z,178.75
2018-12-31T01:17:55.878Z,183.25
2018-12-31T01:20:27.391Z,187.75
2018-12-31T01:22:59.023Z,180.75
2018-12-31T01:25:30.273Z,182.50
2018-12-31T01:28:01.913Z,177.75
2018-12-31T01:30:33.219Z,177.00
2018-12-31T01:33:04.432Z,174.75
2018-12-31T01:35:35.892Z,193.75
2018-12-31T01:38:07.184Z,171.75
2018-12-31T01:40:39.372Z,183.25
2018-12-31T01:43:10.693Z,188.75
2018-12-31T01:45:42.306Z,181.25
2018-12-31T01:48:13.529Z,207.50
2018-12-31T01:50:44.795Z,190.50
2018-12-31T01:53:16.370Z,201.75
2018-12-31T01:55:47.702Z,193.25
2018-12-31T01:58:19.176Z,186.25
2018-12-31T02:00:50.379Z,180.00
2018-12-31T02:03:21.631Z,204.00
2018-12-31T02:05:53.131Z,196.25
2018-12-31T02:08:24.669Z,195.25
2018-12-31T02:10:56.678Z,206.50
2018-12-31T02:13:28.012Z,209.00
2018-12-31T02:15:59.142Z,208.25
2018-12-31T02:18:30.592Z,201.50
2018-12-31T02:21:01.951Z,192.25
2018-12-31T02:23:33.247Z,185.75
2018-12-31T02:26:04.431Z,193.75
2018-12-31T02:28:35.883Z,196.75
2018-12-31T02:31:07.673Z,209.00
2018-12-31T02:33:39.099Z,201.00
2018-12-31T02:36:10.772Z,215.00
2018-12-31T02:38:42.121Z,215.40
2018-12-31T02:41:13.986Z,188.75
2018-12-31T02:43:45.498Z,202.25
2018-12-31T02:46:16.995Z,201.75
2018-12-31T02:48:48.175Z,215.60
2018-12-31T02:51:19.814Z,220.00
2018-12-31T02:53:51.020Z,205.40
2018-12-31T02:56:22.486Z,225.60
2018-12-31T02:58:53.690Z,228.20
2018-12-31T03:01:25.241Z,216.20
2018-12-31T03:03:56.763Z,232.20
2018-12-31T03:06:28.088Z,227.00
2018-12-31T03:08:59.290Z,232.60
2018-12-31T03:11:30.991Z,227.80
2018-12-31T03:14:02.199Z,233.80
2018-12-31T03:16:33.482Z,243.50
2018-12-31T03:19:04.719Z,238.75
2018-12-31T03:21:35.966Z,236.00
2018-12-31T03:24:07.192Z,240.50
2018-12-31T03:26:38.435Z,224.40
2018-12-31T03:29:10.092Z,225.80
2018-12-31T03:31:41.132Z,224.80
2018-12-31T03:34:12.390Z,229.40
2018-12-31T03:36:45.047Z,217.80
2018-12-31T03:39:16.574Z,214.00
2018-12-31T03:41:48.265Z,216.60
2018-12-31T03:44:19.541Z,224.80
2018-12-31T03:46:50.863Z,200.25
2018-12-31T03:49:22.107Z,218.50
2018-12-31T03:51:53.642Z,218.75
2018-12-31T03:54:25.048Z,223.20
2018-12-31T03:56:56.255Z,231.00
2018-12-31T03:59:27.697Z,223.40
2018-12-31T04:01:59.169Z,213.75
2018-12-31T04:04:30.781Z,198.75
2018-12-31T04:07:02.539Z,208.00
2018-12-31T04:09:34.999Z,206.25
2018-12-31T04:12:07.173Z,195.25
2018-12-31T04:14:38.711Z,193.25
2018-12-31T04:17:09.979Z,183.75
2018-12-31T04:19:41.344Z,195.00
2018-12-31T04:22:13.080Z,188.75
2018-12-31T04:24:44.652Z,192.00
2018-12-31T04:27:16.079Z,189.00
2018-12-31T04:29:47.759Z,190.50
2018-12-31T04:32:19.112Z,193.50
2018-12-31T04:34:50.455Z,197.75
2018-12-31T04:37:21.781Z,195.50
2018-12-31T04:39:53.323Z,183.25
2018-12-31T04:42:24.998Z,171.25
2018-12-31T04:44:56.287Z,188.25
2018-12-31T04:47:27.763Z,172.50
2018-12-31T04:49:59.328Z,182.75
2018-12-31T04:52:30.579Z,182.50
2018-12-31T04:55:02.186Z,193.25
2018-12-31T04:57:33.483Z,194.75
2018-12-31T05:00:05.285Z,184.50
2018-12-31T05:02:36.900Z,178.75
2018-12-31T05:05:08.271Z,172.00
2018-12-31T05:07:39.442Z,173.25
2018-12-31T05:10:11.259Z,149.00
2018-12-31T05:12:43.089Z,144.75
2018-12-31T05:15:14.857Z,139.50
2018-12-31T05:17:46.614Z,146.00
2018-12-31T05:20:19.039Z,141.75
2018-12-31T05:22:50.584Z,142.00
2018-12-31T05:25:21.947Z,136.75
2018-12-31T05:27:53.273Z,149.50
2018-12-31T05:30:25.224Z,129.75
2018-12-31T05:32:56.656Z,131.00
2018-12-31T05:35:28.206Z,121.75
2018-12-31T05:37:59.920Z,127.25
2018-12-31T05:40:31.567Z,123.50
2018-12-31T05:43:03.388Z,116.25
2018-12-31T05:45:35.052Z,120.25
2018-12-31T05:48:06.700Z,126.75
2018-12-31T05:50:38.270Z,133.25
2018-12-31T05:53:10.027Z,126.75
2018-12-31T05:55:41.675Z,126.75
2018-12-31T05:58:12.999Z,143.75
2018-12-31T06:00:44.655Z,125.00
2018-12-31T06:03:16.203Z,151.00
2018-12-31T06:05:47.951Z,135.00
2018-12-31T06:08:19.477Z,126.50
2018-12-31T06:10:51.009Z,119.25
2018-12-31T06:13:22.995Z,119.25
2018-12-31T06:15:55.048Z,115.75
2018-12-31T06:18:26.752Z,97.50
2018-12-31T06:20:58.973Z,97.25
2018-12-31T06:23:30.385Z,85.80
2018-12-31T06:26:02.046Z,92.80
2018-12-31T06:28:33.542Z,92.00
2018-12-31T06:31:05.152Z,106.00
2018-12-31T06:33:36.663Z,98.50
2018-12-31T06:36:08.040Z,94.25
2018-12-31T06:38:39.725Z,98.00
2018-12-31T06:41:11.212Z,98.00
2018-12-31T06:43:43.266Z,95.50
2018-12-31T06:46:14.663Z,90.80
2018-12-31T06:48:46.699Z,95.20
2018-12-31T06:51:18.323Z,95.25
2018-12-31T06:53:49.893Z,91.20
2018-12-31T06:56:21.663Z,95.00
2018-12-31T06:58:53.218Z,97.40
2018-12-31T07:01:24.443Z,95.00
2018-12-31T07:03:56.095Z,81.60
2018-12-31T07:06:27.845Z,75.60
2018-12-31T07:08:59.355Z,77.40
2018-12-31T07:11:31.223Z,78.60
2018-12-31T07:14:03.323Z,73.20
2018-12-31T07:16:34.675Z,75.60
2018-12-31T07:19:06.050Z,71.20
2018-12-31T07:21:37.337Z,75.80
2018-12-31T07:24:08.940Z,78.40
2018-12-31T07:26:40.497Z,69.80
2018-12-31T07:29:11.828Z,76.20
2018-12-31T07:31:44.355Z,77.00
2018-12-31T07:34:15.551Z,73.80
2018-12-31T07:36:46.843Z,70.80
2018-12-31T07:39:18.366Z,78.40
2018-12-31T07:41:49.744Z,78.80
2018-12-31T07:44:21.689Z,75.40
2018-12-31T07:46:53.414Z,72.80
2018-12-31T07:49:25.246Z,71.20
2018-12-31T07:51:56.605Z,66.80
2018-12-31T07:54:28.132Z,66.00
2018-12-31T07:57:00.348Z,65.00
2018-12-31T07:59:31.573Z,71.60
2018-12-31T08:02:02.917Z,60.40
2018-12-31T08:04:34.345Z,70.40
2018-12-31T08:07:05.653Z,67.20
2018-12-31T08:09:37.013Z,68.60
2018-12-31T08:12:08.477Z,71.00
2018-12-31T08:14:40.364Z,71.00
2018-12-31T08:17:11.753Z,66.20
2018-12-31T08:19:43.332Z,49.20
2018-12-31T08:22:15.077Z,69.60
2018-12-31T08:24:46.863Z,73.60
2018-12-31T08:27:18.125Z,68.60
2018-12-31T08:29:49.572Z,77.40
2018-12-31T08:32:21.703Z,69.80
2018-12-31T08:34:53.626Z,71.40
2018-12-31T08:37:25.683Z,66.60
2018-12-31T08:39:58.036Z,76.20
2018-12-31T08:42:29.679Z,77.80
2018-12-31T08:45:01.518Z,65.80
2018-12-31T08:47:33.117Z,69.60
2018-12-31T08:50:04.674Z,70.20
2018-12-31T08:52:36.105Z,63.80
2018-12-31T08:55:07.832Z,71.40
2018-12-31T08:57:39.659Z,69.00
2018-12-31T09:00:11.446Z,67.00
2018-12-31T09:02:42.665Z,62.60
2018-12-31T09:05:14.367Z,68.60
2018-12-31T09:07:46.862Z,66.80
2018-12-31T09:10:18.167Z,61.20
2018-12-31T09:12:49.114Z,64.20
2018-12-31T09:15:21.010Z,64.20
2018-12-31T09:17:52.173Z,56.60
2018-12-31T09:20:24.185Z,63.60
2018-12-31T09:22:55.372Z,65.60
2018-12-31T09:25:26.678Z,60.40
2018-12-31T09:27:58.026Z,60.40
2018-12-31T09:30:29.797Z,62.80
2018-12-31T09:33:01.281Z,58.40
2018-12-31T09:35:32.709Z,59.20
2018-12-31T09:38:04.005Z,59.40
2018-12-31T09:40:35.351Z,61.20
2018-12-31T09:43:06.488Z,50.80
2018-12-31T09:45:38.535Z,60.00
2018-12-31T09:48:09.712Z,56.00
2018-12-31T09:50:41.611Z,56.40
2018-12-31T09:53:12.868Z,61.20
2018-12-31T09:55:44.322Z,57.20
2018-12-31T09:58:15.741Z,61.60
2018-12-31T10:00:47.200Z,61.00
2018-12-31T10:03:18.328Z,62.00
2018-12-31T10:05:49.536Z,62.60
2018-12-31T10:08:20.777Z,61.60
2018-12-31T10:10:52.242Z,65.60
2018-12-31T10:13:23.442Z,66.40
2018-12-31T10:15:57.710Z,66.00
2018-12-31T10:18:29.032Z,65.80
2018-12-31T10:21:00.859Z,66.80
2018-12-31T10:23:32.093Z,72.80
2018-12-31T10:26:03.393Z,69.80
2018-12-31T10:28:34.650Z,73.20
2018-12-31T10:31:06.483Z,78.20
2018-12-31T10:33:38.335Z,86.00
2018-12-31T10:36:10.809Z,87.60
2018-12-31T10:38:42.881Z,90.60
2018-12-31T10:41:14.269Z,91.60
2018-12-31T10:43:45.413Z,91.20
2018-12-31T10:46:17.322Z,84.20
2018-12-31T10:48:48.912Z,82.20
2018-12-31T10:51:20.337Z,81.40
2018-12-31T10:53:51.936Z,82.20
2018-12-31T10:56:23.804Z,85.80
2018-12-31T10:58:55.460Z,87.20
2018-12-31T11:01:28.371Z,77.00
2018-12-31T11:03:59.451Z,81.40
2018-12-31T11:06:31.122Z,83.00
2018-12-31T11:09:02.324Z,80.60
2018-12-31T11:11:34.338Z,85.00
2018-12-31T11:14:05.398Z,81.60
2018-12-31T11:16:37.554Z,88.00
2018-12-31T11:19:08.990Z,81.40
2018-12-31T11:21:40.755Z,88.40
2018-12-31T11:24:12.816Z,88.20
2018-12-31T11:26:44.468Z,84.60
2018-12-31T11:29:15.934Z,89.80
2018-12-31T11:31:47.248Z,87.40
2018-12-31T11:34:19.178Z,83.60
2018-12-31T11:36:50.877Z,89.20
2018-12-31T11:39:22.298Z,88.60
2018-12-31T11:41:53.790Z,81.80
2018-12-31T11:44:25.083Z,81.20
2018-12-31T11:46:57.345Z,84.00
2018-12-31T11:49:28.536Z,76.20
2018-12-31T11:52:00.060Z,85.80
2018-12-31T11:54:31.519Z,77.60
2018-12-31T11:57:03.236Z,76.80
2018-12-31T11:59:34.392Z,87.00
2018-12-31T12:02:06.165Z,86.40
2018-12-31T12:04:37.367Z,90.40
2018-12-31T12:07:08.728Z,93.60
2018-12-31T12:09:39.988Z,100.00
2018-12-31T12:12:11.398Z,90.80
2018-12-31T12:14:42.953Z,91.80
2018-12-31T12:17:15.005Z,95.00
2018-12-31T12:19:46.181Z,94.20
2018-12-31T12:22:17.590Z,95.00
2018-12-31T12:24:49.554Z,90.60
2018-12-31T12:27:21.314Z,94.20
2018-12-31T12:29:52.345Z,98.00
2018-12-31T12:32:23.631Z,95.75
2018-12-31T12:34:55.861Z,97.50
2018-12-31T12:37:27.436Z,91.20
2018-12-31T12:39:58.892Z,95.25
2018-12-31T12:42:30.523Z,99.50
2018-12-31T12:45:02.019Z,95.00
2018-12-31T12:47:34.262Z,108.00
2018-12-31T12:50:05.877Z,112.00
2018-12-31T12:52:37.293Z,117.25
2018-12-31T12:55:08.535Z,112.75
2018-12-31T12:57:39.922Z,120.50
2018-12-31T13:00:11.390Z,118.50
2018-12-31T13:02:43.147Z,123.00
2018-12-31T13:05:14.311Z,122.50
2018-12-31T13:07:46.973Z,130.25
2018-12-31T13:10:18.613Z,134.00
2018-12-31T13:12:51.260Z,146.25
2018-12-31T13:15:22.434Z,149.00
2018-12-31T13:17:54.608Z,148.50
2018-12-31T13:20:25.934Z,161.50
2018-12-31T13:22:57.721Z,165.25
2018-12-31T13:25:28.972Z,184.25
2018-12-31T13:28:00.436Z,173.75
2018-12-31T13:30:33.287Z,179.00
2018-12-31T13:33:05.148Z,186.25
2018-12-31T13:35:36.671Z,187.00
2018-12-31T13:38:08.354Z,190.50
2018-12-31T13:40:39.759Z,193.00
2018-12-31T13:43:11.525Z,203.00
2018-12-31T13:45:43.003Z,208.25
2018-12-31T13:48:14.679Z,215.60
2018-12-31T13:50:46.191Z,225.00
2018-12-31T13:53:17.971Z,238.25
2018-12-31T13:55:49.223Z,243.80
2018-12-31T13:58:20.971Z,263.20
2018-12-31T14:00:52.147Z,261.20
2018-12-31T14:03:23.902Z,269.17
2018-12-31T14:05:55.049Z,258.83
2018-12-31T14:08:26.506Z,281.20
2018-12-31T14:10:57.698Z,297.80
2018-12-31T14:13:29.200Z,288.00
2018-12-31T14:16:00.928Z,287.60
2018-12-31T14:18:32.714Z,278.40
2018-12-31T14:21:03.955Z,272.20
2018-12-31T14:23:35.509Z,286.00
2018-12-31T14:26:07.119Z,279.00
2018-12-31T14:28:38.686Z,305.17
2018-12-31T14:31:10.041Z,292.50
2018-12-31T14:33:41.577Z,315.40
2018-12-31T14:36:13.044Z,310.80
2018-12-31T14:38:45.502Z,313.80
2018-12-31T14:41:17.616Z,314.00
2018-12-31T14:43:49.279Z,306.60
2018-12-31T14:46:20.401Z,304.40
2018-12-31T14:48:52.317Z,304.67
2018-12-31T14:51:24.218Z,313.67
2018-12-31T14:53:55.762Z,305.80
2018-12-31T14:56:27.140Z,304.83
2018-12-31T14:58:58.968Z,305.80
2018-12-31T15:01:31.729Z,307.20
2018-12-31T15:04:03.129Z,328.83
2018-12-31T15:06:34.377Z,306.17
2018-12-31T15:09:07.688Z,336.33
2018-12-31T15:11:45.406Z,299.33
2018-12-31T15:14:17.096Z,309.67
2018-12-31T15:16:49.151Z,312.40
2018-12-31T15:19:20.820Z,302.40
2018-12-31T15:21:52.228Z,305.67
2018-12-31T15:24:23.556Z,324.17
2018-12-31T15:26:54.950Z,323.50
2018-12-31T15:29:27.612Z,319.33
2018-12-31T15:31:59.090Z,320.17
2018-12-31T15:34:30.923Z,315.67
2018-12-31T15:37:02.555Z,302.83
2018-12-31T15:39:34.041Z,301.00
2018-12-31T15:42:05.673Z,306.67
2018-12-31T15:44:36.726Z,291.00
2018-12-31T15:47:08.228Z,314.00
2018-12-31T15:49:40.349Z,311.00
2018-12-31T15:52:11.790Z,285.67
2018-12-31T15:54:43.214Z,300.00
2018-12-31T15:57:14.755Z,309.50
2018-12-31T15:59:45.836Z,301.33
2018-12-31T16:02:17.083Z,286.67
2018-12-31T16:04:48.109Z,295.00
2018-12-31T16:07:19.552Z,284.67
2018-12-31T16:09:50.603Z,304.00
2018-12-31T16:12:22.079Z,305.83
2018-12-31T16:14:53.397Z,305.83
2018-12-31T16:17:24.822Z,306.00
2018-12-31T16:19:56.626Z,296.67
2018-12-31T16:22:28.009Z,299.17
2018-12-31T16:24:59.308Z,297.50
2018-12-31T16:27:30.835Z,304.17
2018-12-31T16:30:02.062Z,294.17
2018-12-31T16:32:33.440Z,290.33
2018-12-31T16:35:04.757Z,285.33
2018-12-31T16:37:36.370Z,284.17
2018-12-31T16:40:08.439Z,287.17
2018-12-31T16:42:40.709Z,281.50
2018-12-31T16:45:12.186Z,294.00
2018-12-31T16:47:43.780Z,287.83
2018-12-31T16:50:15.835Z,279.67
2018-12-31T16:52:47.083Z,281.33
2018-12-31T16:55:18.617Z,279.33
2018-12-31T16:57:54.132Z,294.33
2018-12-31T17:00:25.933Z,287.83
2018-12-31T17:02:59.442Z,288.50
2018-12-31T17:05:31.003Z,290.67
2018-12-31T17:08:02.410Z,300.33
2018-12-31T17:10:33.794Z,296.83
2018-12-31T17:13:05.135Z,265.50
2018-12-31T17:15:36.454Z,287.83
2018-12-31T17:18:07.868Z,270.00
2018-12-31T17:20:39.996Z,279.67
2018-12-31T17:23:11.443Z,270.33
2018-12-31T17:25:42.743Z,292.67
2018-12-31T17:28:14.017Z,276.83
2018-12-31T17:30:45.194Z,283.67
2018-12-31T17:33:17.298Z,283.33
2018-12-31T17:35:49.477Z,284.33
2018-12-31T17:38:22.507Z,282.50
2018-12-31T17:40:54.356Z,284.50
2018-12-31T17:43:26.113Z,280.33
2018-12-31T17:45:57.404Z,278.00
2018-12-31T17:48:28.895Z,285.83
2018-12-31T17:51:01.049Z,261.83
2018-12-31T17:53:33.030Z,281.50
2018-12-31T17:56:04.378Z,285.50
2018-12-31T17:58:35.674Z,285.83
2018-12-31T18:01:06.900Z,278.67
2018-12-31T18:03:38.400Z,278.17
2018-12-31T18:06:09.589Z,268.67
2018-12-31T18:08:40.887Z,275.00
2018-12-31T18:11:13.183Z,276.83
2018-12-31T18:13:44.801Z,284.00
2018-12-31T18:16:16.070Z,268.83
2018-12-31T18:18:47.631Z,277.83
2018-12-31T18:21:19.727Z,277.00
2018-12-31T18:23:50.987Z,276.83
2018-12-31T18:26:22.439Z,274.67
2018-12-31T18:28:53.827Z,263.33
2018-12-31T18:31:25.176Z,281.80
2018-12-31T18:33:56.705Z,285.20
2018-12-31T18:36:27.967Z,292.20
2018-12-31T18:38:59.403Z,287.80
2018-12-31T18:41:31.253Z,279.20
2018-12-31T18:44:02.579Z,265.40
2018-12-31T18:46:34.419Z,282.00
2018-12-31T18:49:05.815Z,271.80
2018-12-31T18:51:37.866Z,287.20
2018-12-31T18:54:09.080Z,267.40
2018-12-31T18:56:40.404Z,282.80
2018-12-31T18:59:12.079Z,270.40
2018-12-31T19:01:43.725Z,279.20
2018-12-31T19:04:15.583Z,259.80
2018-12-31T19:06:46.997Z,275.83
2018-12-31T19:09:18.391Z,279.50
2018-12-31T19:11:49.691Z,276.83
2018-12-31T19:14:21.486Z,268.67
2018-12-31T19:16:52.867Z,264.67
2018-12-31T19:19:25.269Z,280.17
2018-12-31T19:21:57.288Z,266.50
2018-12-31T19:24:29.140Z,264.00
2018-12-31T19:27:00.805Z,277.83
2018-12-31T19:29:32.488Z,265.33
2018-12-31T19:32:04.253Z,257.83
2018-12-31T19:34:35.772Z,270.00
2018-12-31T19:37:07.023Z,244.40
2018-12-31T19:39:38.288Z,273.00
2018-12-31T19:42:10.388Z,269.80
2018-12-31T19:44:41.601Z,263.40
2018-12-31T19:47:13.049Z,264.20
2018-12-31T19:49:44.246Z,256.40
2018-12-31T19:52:16.427Z,267.80
2018-12-31T19:54:47.918Z,256.40
2018-12-31T19:57:19.425Z,249.60
2018-12-31T19:59:50.680Z,239.60
2018-12-31T20:02:22.671Z,263.60
2018-12-31T20:04:54.185Z,256.40
2018-12-31T20:07:26.176Z,249.00
2018-12-31T20:09:57.759Z,254.80
2018-12-31T20:12:29.532Z,262.80
2018-12-31T20:15:01.110Z,265.80
2018-12-31T20:17:32.808Z,259.40
2018-12-31T20:20:04.412Z,253.20
2018-12-31T20:22:36.316Z,245.80
2018-12-31T20:25:07.725Z,245.80
2018-12-31T20:27:39.518Z,248.00
2018-12-31T20:30:10.967Z,231.80
2018-12-31T20:32:42.393Z,245.33
2018-12-31T20:35:13.668Z,247.33
2018-12-31T20:37:45.278Z,246.00
2018-12-31T20:40:16.783Z,256.00
2018-12-31T20:42:48.708Z,252.60
2018-12-31T20:45:20.251Z,247.20
2018-12-31T20:47:52.072Z,223.40
2018-12-31T20:50:23.582Z,238.80
2018-12-31T20:52:55.694Z,229.20
2018-12-31T20:55:27.073Z,239.00
2018-12-31T20:57:58.521Z,229.60
2018-12-31T21:00:29.768Z,226.20
2018-12-31T21:03:01.201Z,227.40
2018-12-31T21:05:32.454Z,237.60
2018-12-31T21:08:03.899Z,221.25
2018-12-31T21:10:35.729Z,222.00
2018-12-31T21:13:07.483Z,210.50
2018-12-31T21:15:38.845Z,215.60
2018-12-31T21:18:10.659Z,210.40
2018-12-31T21:20:42.107Z,216.80
2018-12-31T21:23:14.006Z,221.00
2018-12-31T21:25:45.292Z,224.00
2018-12-31T21:28:16.827Z,198.20
2018-12-31T21:30:47.987Z,204.20
2018-12-31T21:33:19.473Z,188.20
2018-12-31T21:35:50.938Z,186.75
2018-12-31T21:38:23.785Z,202.75
2018-12-31T21:40:55.341Z,184.25
2018-12-31T21:43:27.608Z,195.00
2018-12-31T21:45:58.945Z,201.75
2018-12-31T21:48:30.304Z,201.00
2018-12-31T21:51:01.616Z,187.50
2018-12-31T21:53:33.492Z,205.50
2018-12-31T21:56:05.324Z,189.00
2018-12-31T21:58:37.036Z,193.25
2018-12-31T22:01:08.703Z,186.50
2018-12-31T22:03:40.489Z,182.75
2018-12-31T22:06:12.141Z,179.00
2018-12-31T22:08:43.557Z,199.75
2018-12-31T22:11:14.900Z,179.00
2018-12-31T22:13:46.310Z,186.00
2018-12-31T22:16:18.215Z,183.75
2018-12-31T22:18:49.770Z,179.25
2018-12-31T22:21:21.073Z,185.00
2018-12-31T22:23:52.843Z,182.50
2018-12-31T22:26:24.178Z,186.25
2018-12-31T22:28:55.766Z,183.50
2018-12-31T22:31:26.920Z,180.75
2018-12-31T22:33:58.322Z,179.50
2018-12-31T22:36:29.761Z,180.25
2018-12-31T22:39:01.091Z,186.25
2018-12-31T22:41:33.956Z,178.50
2018-12-31T22:44:05.893Z,187.00
2018-12-31T22:46:37.489Z,177.00
2018-12-31T22:49:09.612Z,172.25
2018-12-31T22:51:41.226Z,170.00
2018-12-31T22:54:13.517Z,182.25
2018-12-31T22:56:45.075Z,179.25
2018-12-31T22:59:16.967Z,185.25
2018-12-31T23:01:48.329Z,175.50
2018-12-31T23:04:19.783Z,169.50
2018-12-31T23:06:52.324Z,165.00
2018-12-31T23:09:23.735Z,171.75
2018-12-31T23:11:55.167Z,164.50
2018-12-31T23:14:26.936Z,178.00
2018-12-31T23:17:02.719Z,166.50
2018-12-31T23:19:41.303Z,164.75
2018-12-31T23:22:07.372Z,165.25
2018-12-31T23:24:39.369Z,167.25
2018-12-31T23:27:11.678Z,181.75
2018-12-31T23:29:42.873Z,167.50
2018-12-31T23:32:14.208Z,164.25
2018-12-31T23:34:46.013Z,167.25
2018-12-31T23:37:17.479Z,169.25
2018-12-31T23:39:48.973Z,161.75
2018-12-31T23:42:20.639Z,169.75
2018-12-31T23:44:53.361Z,157.00
2018-12-31T23:47:24.625Z,164.00
2018-12-31T23:49:55.974Z,149.00
2018-12-31T23:52:27.646Z,164.75
2018-12-31T23:54:59.865Z,156.25
2018-12-31T23:57:32.509Z,169.75
